Ariel, Washington
Current Conditions -  °F | °C
As of 9:35 AM on Monday 24 Nov 2014 (Local Time) from KKLS Reporting Station
Overcast Overcast  
Wind Chill: 45°   Ceiling: 2100
Heat Index: 48°   Visibility: 10mi
Dew Point: 45°   Wind: 7mph
Humidity: 87%   Direction: 160°SSE
Pressure: 30.39"   Gusts: NA
Location:  45.96°N, 122.57°W
Report Text: KKLS 241735Z 16006KT 10SM BKN021 BKN050 OVC100 09/07 A3039 RMK AO1
Loading
Personal Weather Stations






























Interactive Weather Map New forecast layout! Learn more

10-Day Weather Forecast

Advertisements
Track Severe Weather on mobile